sensor_id;sensor_type;location;lat;lon;timestamp;temperature;humidity
55135;DHT22;41031;44.750;11.308;2023-08-12T00:00:22;22.60;82.30
55135;DHT22;41031;44.750;11.308;2023-08-12T00:02:49;22.60;82.40
55135;DHT22;41031;44.750;11.308;2023-08-12T00:05:16;22.50;82.60
55135;DHT22;41031;44.750;11.308;2023-08-12T00:07:43;22.50;83.00
55135;DHT22;41031;44.750;11.308;2023-08-12T00:10:12;22.40;83.50
55135;DHT22;41031;44.750;11.308;2023-08-12T00:12:39;22.40;84.00
55135;DHT22;41031;44.750;11.308;2023-08-12T00:15:08;22.40;84.30
55135;DHT22;41031;44.750;11.308;2023-08-12T00:17:36;22.40;84.70
55135;DHT22;41031;44.750;11.308;2023-08-12T00:20:05;22.30;84.90
55135;DHT22;41031;44.750;11.308;2023-08-12T00:22:38;22.30;85.10
55135;DHT22;41031;44.750;11.308;2023-08-12T00:25:06;22.30;85.30
55135;DHT22;41031;44.750;11.308;2023-08-12T00:27:33;22.30;85.50
55135;DHT22;41031;44.750;11.308;2023-08-12T00:30:00;22.30;85.50
55135;DHT22;41031;44.750;11.308;2023-08-12T00:32:28;22.30;85.30
55135;DHT22;41031;44.750;11.308;2023-08-12T00:34:55;22.20;85.30
55135;DHT22;41031;44.750;11.308;2023-08-12T00:37:22;22.20;85.50
55135;DHT22;41031;44.750;11.308;2023-08-12T00:39:49;22.20;85.70
55135;DHT22;41031;44.750;11.308;2023-08-12T00:42:16;22.10;86.00
55135;DHT22;41031;44.750;11.308;2023-08-12T00:44:43;22.10;86.20
55135;DHT22;41031;44.750;11.308;2023-08-12T00:47:10;22.10;86.50
55135;DHT22;41031;44.750;11.308;2023-08-12T00:49:40;22.10;86.80
55135;DHT22;41031;44.750;11.308;2023-08-12T00:52:07;22.10;87.00
55135;DHT22;41031;44.750;11.308;2023-08-12T00:54:34;22.10;87.30
55135;DHT22;41031;44.750;11.308;2023-08-12T00:57:01;22.10;87.50
55135;DHT22;41031;44.750;11.308;2023-08-12T00:59:29;22.10;87.40
55135;DHT22;41031;44.750;11.308;2023-08-12T01:01:56;22.10;87.20
55135;DHT22;41031;44.750;11.308;2023-08-12T01:04:23;22.10;87.10
55135;DHT22;41031;44.750;11.308;2023-08-12T01:06:50;22.10;87.20
55135;DHT22;41031;44.750;11.308;2023-08-12T01:09:17;22.10;87.40
55135;DHT22;41031;44.750;11.308;2023-08-12T01:12:34;22.10;87.60
55135;DHT22;41031;44.750;11.308;2023-08-12T01:14:57;22.10;88.00
55135;DHT22;41031;44.750;11.308;2023-08-12T01:17:26;22.00;88.00
55135;DHT22;41031;44.750;11.308;2023-08-12T01:19:56;22.00;88.20
55135;DHT22;41031;44.750;11.308;2023-08-12T01:22:25;22.00;88.50
55135;DHT22;41031;44.750;11.308;2023-08-12T01:24:54;22.00;88.70
55135;DHT22;41031;44.750;11.308;2023-08-12T01:27:22;22.00;88.90
55135;DHT22;41031;44.750;11.308;2023-08-12T01:29:50;21.90;89.00
55135;DHT22;41031;44.750;11.308;2023-08-12T01:32:32;21.90;89.30
55135;DHT22;41031;44.750;11.308;2023-08-12T01:35:14;21.90;89.50
55135;DHT22;41031;44.750;11.308;2023-08-12T01:37:45;21.80;89.50
55135;DHT22;41031;44.750;11.308;2023-08-12T01:40:14;21.80;89.50
55135;DHT22;41031;44.750;11.308;2023-08-12T01:42:42;21.80;89.60
55135;DHT22;41031;44.750;11.308;2023-08-12T01:45:10;21.70;89.60
55135;DHT22;41031;44.750;11.308;2023-08-12T01:47:38;21.70;89.80
55135;DHT22;41031;44.750;11.308;2023-08-12T01:50:05;21.70;89.90
55135;DHT22;41031;44.750;11.308;2023-08-12T01:52:33;21.70;90.10
55135;DHT22;41031;44.750;11.308;2023-08-12T01:55:00;21.70;90.20
55135;DHT22;41031;44.750;11.308;2023-08-12T01:57:28;21.70;90.50
55135;DHT22;41031;44.750;11.308;2023-08-12T01:59:55;21.60;90.30
55135;DHT22;41031;44.750;11.308;2023-08-12T02:02:21;21.60;90.30
55135;DHT22;41031;44.750;11.308;2023-08-12T02:04:49;21.60;90.50
55135;DHT22;41031;44.750;11.308;2023-08-12T02:07:16;21.60;90.60
55135;DHT22;41031;44.750;11.308;2023-08-12T02:09:44;21.60;90.60
55135;DHT22;41031;44.750;11.308;2023-08-12T02:12:11;21.70;90.70
55135;DHT22;41031;44.750;11.308;2023-08-12T02:14:38;21.70;90.80
55135;DHT22;41031;44.750;11.308;2023-08-12T02:17:05;21.60;90.90
55135;DHT22;41031;44.750;11.308;2023-08-12T02:19:33;21.60;91.00
55135;DHT22;41031;44.750;11.308;2023-08-12T02:22:04;21.60;91.10
55135;DHT22;41031;44.750;11.308;2023-08-12T02:24:31;21.70;91.20
55135;DHT22;41031;44.750;11.308;2023-08-12T02:26:58;21.60;91.20
55135;DHT22;41031;44.750;11.308;2023-08-12T02:29:25;21.60;91.30
55135;DHT22;41031;44.750;11.308;2023-08-12T02:31:52;21.60;91.40
55135;DHT22;41031;44.750;11.308;2023-08-12T02:34:19;21.60;91.50
55135;DHT22;41031;44.750;11.308;2023-08-12T02:36:46;21.50;91.70
55135;DHT22;41031;44.750;11.308;2023-08-12T02:39:13;21.50;91.80
55135;DHT22;41031;44.750;11.308;2023-08-12T02:41:40;21.50;91.90
55135;DHT22;41031;44.750;11.308;2023-08-12T02:44:07;21.50;92.10
55135;DHT22;41031;44.750;11.308;2023-08-12T02:46:34;21.50;92.20
55135;DHT22;41031;44.750;11.308;2023-08-12T02:49:01;21.50;92.20
55135;DHT22;41031;44.750;11.308;2023-08-12T02:51:28;21.50;92.30
55135;DHT22;41031;44.750;11.308;2023-08-12T02:53:56;21.50;92.40
55135;DHT22;41031;44.750;11.308;2023-08-12T02:56:23;21.40;92.40
55135;DHT22;41031;44.750;11.308;2023-08-12T02:58:50;21.40;92.50
55135;DHT22;41031;44.750;11.308;2023-08-12T03:01:17;21.40;92.60
55135;DHT22;41031;44.750;11.308;2023-08-12T03:03:44;21.40;92.60
55135;DHT22;41031;44.750;11.308;2023-08-12T03:06:11;21.40;92.70
55135;DHT22;41031;44.750;11.308;2023-08-12T03:08:38;21.50;92.70
55135;DHT22;41031;44.750;11.308;2023-08-12T03:11:07;21.40;92.60
55135;DHT22;41031;44.750;11.308;2023-08-12T03:13:34;21.40;92.90
55135;DHT22;41031;44.750;11.308;2023-08-12T03:16:01;21.40;92.60
55135;DHT22;41031;44.750;11.308;2023-08-12T03:18:28;21.40;92.70
55135;DHT22;41031;44.750;11.308;2023-08-12T03:20:55;21.30;92.70
55135;DHT22;41031;44.750;11.308;2023-08-12T03:23:24;21.30;92.80
55135;DHT22;41031;44.750;11.308;2023-08-12T03:25:51;21.20;92.60
55135;DHT22;41031;44.750;11.308;2023-08-12T03:28:19;21.20;92.60
55135;DHT22;41031;44.750;11.308;2023-08-12T03:30:53;21.20;92.60
55135;DHT22;41031;44.750;11.308;2023-08-12T03:33:23;21.10;92.70
55135;DHT22;41031;44.750;11.308;2023-08-12T03:35:51;21.10;92.60
55135;DHT22;41031;44.750;11.308;2023-08-12T03:38:18;21.00;92.60
55135;DHT22;41031;44.750;11.308;2023-08-12T03:40:46;21.00;92.70
55135;DHT22;41031;44.750;11.308;2023-08-12T03:43:15;21.00;92.80
55135;DHT22;41031;44.750;11.308;2023-08-12T03:45:44;21.00;92.80
55135;DHT22;41031;44.750;11.308;2023-08-12T03:48:14;20.90;92.80
55135;DHT22;41031;44.750;11.308;2023-08-12T03:50:42;20.90;92.80
55135;DHT22;41031;44.750;11.308;2023-08-12T03:53:09;20.90;92.70
55135;DHT22;41031;44.750;11.308;2023-08-12T03:55:38;20.90;92.60
55135;DHT22;41031;44.750;11.308;2023-08-12T03:58:07;20.90;92.60
55135;DHT22;41031;44.750;11.308;2023-08-12T04:00:34;20.90;92.60
55135;DHT22;41031;44.750;11.308;2023-08-12T04:03:02;20.80;92.60
55135;DHT22;41031;44.750;11.308;2023-08-12T04:05:29;20.80;92.60
55135;DHT22;41031;44.750;11.308;2023-08-12T04:07:56;20.80;92.70
55135;DHT22;41031;44.750;11.308;2023-08-12T04:10:23;20.80;92.70
55135;DHT22;41031;44.750;11.308;2023-08-12T04:12:50;20.70;92.70
55135;DHT22;41031;44.750;11.308;2023-08-12T04:15:17;20.80;92.80
55135;DHT22;41031;44.750;11.308;2023-08-12T04:17:44;20.80;92.80
55135;DHT22;41031;44.750;11.308;2023-08-12T04:20:11;20.70;92.80
55135;DHT22;41031;44.750;11.308;2023-08-12T04:22:38;20.70;92.80
55135;DHT22;41031;44.750;11.308;2023-08-12T04:25:07;20.70;92.80
55135;DHT22;41031;44.750;11.308;2023-08-12T04:27:35;20.70;92.90
55135;DHT22;41031;44.750;11.308;2023-08-12T04:30:02;20.70;92.90
55135;DHT22;41031;44.750;11.308;2023-08-12T04:32:30;20.70;92.90
55135;DHT22;41031;44.750;11.308;2023-08-12T04:34:57;20.80;93.10
55135;DHT22;41031;44.750;11.308;2023-08-12T04:37:25;20.80;93.10
55135;DHT22;41031;44.750;11.308;2023-08-12T04:39:53;20.80;93.20
55135;DHT22;41031;44.750;11.308;2023-08-12T04:42:21;20.80;93.20
55135;DHT22;41031;44.750;11.308;2023-08-12T04:44:48;20.90;93.20
55135;DHT22;41031;44.750;11.308;2023-08-12T04:47:15;20.90;93.30
55135;DHT22;41031;44.750;11.308;2023-08-12T04:49:42;21.00;93.30
55135;DHT22;41031;44.750;11.308;2023-08-12T04:52:09;21.00;93.30
55135;DHT22;41031;44.750;11.308;2023-08-12T04:54:37;21.10;93.30
55135;DHT22;41031;44.750;11.308;2023-08-12T04:57:04;21.10;93.20
55135;DHT22;41031;44.750;11.308;2023-08-12T04:59:32;21.10;93.20
55135;DHT22;41031;44.750;11.308;2023-08-12T05:02:00;21.10;93.20
55135;DHT22;41031;44.750;11.308;2023-08-12T05:04:49;21.10;93.20
55135;DHT22;41031;44.750;11.308;2023-08-12T05:07:17;21.20;93.20
55135;DHT22;41031;44.750;11.308;2023-08-12T05:09:44;21.30;93.20
55135;DHT22;41031;44.750;11.308;2023-08-12T05:12:14;21.30;93.30
55135;DHT22;41031;44.750;11.308;2023-08-12T05:14:41;21.30;93.30
55135;DHT22;41031;44.750;11.308;2023-08-12T05:17:08;21.30;93.40
55135;DHT22;41031;44.750;11.308;2023-08-12T05:19:36;21.30;93.40
55135;DHT22;41031;44.750;11.308;2023-08-12T05:22:03;21.50;93.50
55135;DHT22;41031;44.750;11.308;2023-08-12T05:24:30;21.50;93.40
55135;DHT22;41031;44.750;11.308;2023-08-12T05:26:57;21.60;93.50
55135;DHT22;41031;44.750;11.308;2023-08-12T05:29:24;21.60;93.40
55135;DHT22;41031;44.750;11.308;2023-08-12T05:31:53;21.70;93.40
55135;DHT22;41031;44.750;11.308;2023-08-12T05:34:20;21.80;93.40
55135;DHT22;41031;44.750;11.308;2023-08-12T05:36:47;21.90;93.40
55135;DHT22;41031;44.750;11.308;2023-08-12T05:39:14;21.90;93.30
55135;DHT22;41031;44.750;11.308;2023-08-12T05:41:42;22.10;93.30
55135;DHT22;41031;44.750;11.308;2023-08-12T05:44:09;22.20;93.20
55135;DHT22;41031;44.750;11.308;2023-08-12T05:46:36;22.30;93.10
55135;DHT22;41031;44.750;11.308;2023-08-12T05:49:03;22.40;93.00
55135;DHT22;41031;44.750;11.308;2023-08-12T05:51:30;22.50;93.00
55135;DHT22;41031;44.750;11.308;2023-08-12T05:53:57;22.60;93.00
55135;DHT22;41031;44.750;11.308;2023-08-12T05:56:24;22.70;92.90
55135;DHT22;41031;44.750;11.308;2023-08-12T05:58:51;22.80;92.80
55135;DHT22;41031;44.750;11.308;2023-08-12T06:01:19;22.90;92.60
55135;DHT22;41031;44.750;11.308;2023-08-12T06:03:46;23.10;92.20
55135;DHT22;41031;44.750;11.308;2023-08-12T06:06:13;23.20;92.10
55135;DHT22;41031;44.750;11.308;2023-08-12T06:08:40;23.40;91.90
55135;DHT22;41031;44.750;11.308;2023-08-12T06:11:07;23.60;91.60
55135;DHT22;41031;44.750;11.308;2023-08-12T06:13:34;23.70;91.30
55135;DHT22;41031;44.750;11.308;2023-08-12T06:16:01;23.90;91.00
55135;DHT22;41031;44.750;11.308;2023-08-12T06:18:28;24.00;90.80
55135;DHT22;41031;44.750;11.308;2023-08-12T06:20:55;24.10;90.50
55135;DHT22;41031;44.750;11.308;2023-08-12T06:23:22;24.30;90.20
55135;DHT22;41031;44.750;11.308;2023-08-12T06:25:53;24.40;90.00
55135;DHT22;41031;44.750;11.308;2023-08-12T06:28:20;24.50;88.50
55135;DHT22;41031;44.750;11.308;2023-08-12T06:30:47;24.50;88.10
55135;DHT22;41031;44.750;11.308;2023-08-12T06:33:15;24.50;88.30
55135;DHT22;41031;44.750;11.308;2023-08-12T06:35:42;24.50;88.50
55135;DHT22;41031;44.750;11.308;2023-08-12T06:38:09;24.60;88.70
55135;DHT22;41031;44.750;11.308;2023-08-12T06:40:38;24.80;88.60
55135;DHT22;41031;44.750;11.308;2023-08-12T06:43:05;25.00;87.90
55135;DHT22;41031;44.750;11.308;2023-08-12T06:45:34;25.00;87.50
55135;DHT22;41031;44.750;11.308;2023-08-12T06:48:01;25.20;86.90
55135;DHT22;41031;44.750;11.308;2023-08-12T06:50:31;25.20;87.10
55135;DHT22;41031;44.750;11.308;2023-08-12T06:53:00;25.40;87.00
55135;DHT22;41031;44.750;11.308;2023-08-12T06:55:27;25.50;86.80
55135;DHT22;41031;44.750;11.308;2023-08-12T06:57:54;25.60;86.60
55135;DHT22;41031;44.750;11.308;2023-08-12T07:00:21;25.70;86.70
55135;DHT22;41031;44.750;11.308;2023-08-12T07:02:48;25.90;86.40
55135;DHT22;41031;44.750;11.308;2023-08-12T07:05:15;26.00;86.00
55135;DHT22;41031;44.750;11.308;2023-08-12T07:07:42;26.20;85.90
55135;DHT22;41031;44.750;11.308;2023-08-12T07:10:10;26.30;85.20
55135;DHT22;41031;44.750;11.308;2023-08-12T07:12:37;26.50;84.80
55135;DHT22;41031;44.750;11.308;2023-08-12T07:15:04;26.60;83.90
55135;DHT22;41031;44.750;11.308;2023-08-12T07:17:31;26.80;83.90
55135;DHT22;41031;44.750;11.308;2023-08-12T07:19:58;26.80;83.30
55135;DHT22;41031;44.750;11.308;2023-08-12T07:22:25;26.90;83.40
55135;DHT22;41031;44.750;11.308;2023-08-12T07:24:52;27.00;83.30
55135;DHT22;41031;44.750;11.308;2023-08-12T07:27:19;27.20;83.00
55135;DHT22;41031;44.750;11.308;2023-08-12T07:29:46;27.40;82.70
55135;DHT22;41031;44.750;11.308;2023-08-12T07:32:14;27.60;82.40
55135;DHT22;41031;44.750;11.308;2023-08-12T07:34:41;27.90;81.20
55135;DHT22;41031;44.750;11.308;2023-08-12T07:37:08;28.10;80.00
55135;DHT22;41031;44.750;11.308;2023-08-12T07:39:35;28.20;79.40
55135;DHT22;41031;44.750;11.308;2023-08-12T07:42:02;28.30;78.80
55135;DHT22;41031;44.750;11.308;2023-08-12T07:44:30;28.50;77.60
55135;DHT22;41031;44.750;11.308;2023-08-12T07:46:57;28.50;77.10
55135;DHT22;41031;44.750;11.308;2023-08-12T07:49:24;28.60;76.30
55135;DHT22;41031;44.750;11.308;2023-08-12T07:51:51;28.80;74.60
55135;DHT22;41031;44.750;11.308;2023-08-12T07:54:18;28.80;74.30
55135;DHT22;41031;44.750;11.308;2023-08-12T07:56:45;28.90;73.90
55135;DHT22;41031;44.750;11.308;2023-08-12T07:59:12;29.00;73.20
55135;DHT22;41031;44.750;11.308;2023-08-12T08:01:39;29.10;72.30
55135;DHT22;41031;44.750;11.308;2023-08-12T08:04:06;29.20;72.00
55135;DHT22;41031;44.750;11.308;2023-08-12T08:06:34;29.40;71.80
55135;DHT22;41031;44.750;11.308;2023-08-12T08:09:01;29.60;71.90
55135;DHT22;41031;44.750;11.308;2023-08-12T08:11:31;29.70;71.00
55135;DHT22;41031;44.750;11.308;2023-08-12T08:13:59;29.90;70.30
55135;DHT22;41031;44.750;11.308;2023-08-12T08:16:26;30.00;69.90
55135;DHT22;41031;44.750;11.308;2023-08-12T08:18:54;30.10;69.60
55135;DHT22;41031;44.750;11.308;2023-08-12T08:21:21;30.10;69.30
55135;DHT22;41031;44.750;11.308;2023-08-12T08:23:48;30.30;69.10
55135;DHT22;41031;44.750;11.308;2023-08-12T08:26:15;30.30;68.80
55135;DHT22;41031;44.750;11.308;2023-08-12T08:28:43;30.50;67.90
55135;DHT22;41031;44.750;11.308;2023-08-12T08:31:10;30.60;67.50
55135;DHT22;41031;44.750;11.308;2023-08-12T08:33:37;30.60;67.20
55135;DHT22;41031;44.750;11.308;2023-08-12T08:36:04;30.70;66.50
55135;DHT22;41031;44.750;11.308;2023-08-12T08:38:32;30.80;66.60
55135;DHT22;41031;44.750;11.308;2023-08-12T08:40:59;30.90;66.70
55135;DHT22;41031;44.750;11.308;2023-08-12T08:43:27;31.00;66.40
55135;DHT22;41031;44.750;11.308;2023-08-12T08:45:55;31.10;65.50
55135;DHT22;41031;44.750;11.308;2023-08-12T08:48:23;31.20;64.70
55135;DHT22;41031;44.750;11.308;2023-08-12T08:50:51;31.30;63.80
55135;DHT22;41031;44.750;11.308;2023-08-12T08:53:20;31.40;63.00
55135;DHT22;41031;44.750;11.308;2023-08-12T08:55:47;31.40;62.90
55135;DHT22;41031;44.750;11.308;2023-08-12T08:58:15;31.60;63.70
55135;DHT22;41031;44.750;11.308;2023-08-12T09:00:49;31.60;62.50
55135;DHT22;41031;44.750;11.308;2023-08-12T09:03:16;31.70;62.00
55135;DHT22;41031;44.750;11.308;2023-08-12T09:05:44;31.80;61.70
55135;DHT22;41031;44.750;11.308;2023-08-12T09:08:12;31.70;61.70
55135;DHT22;41031;44.750;11.308;2023-08-12T09:10:40;31.80;60.40
55135;DHT22;41031;44.750;11.308;2023-08-12T09:13:07;31.80;60.20
55135;DHT22;41031;44.750;11.308;2023-08-12T09:15:35;31.80;59.80
55135;DHT22;41031;44.750;11.308;2023-08-12T09:18:05;31.70;59.60
55135;DHT22;41031;44.750;11.308;2023-08-12T09:20:36;31.70;59.40
55135;DHT22;41031;44.750;11.308;2023-08-12T09:23:03;31.70;60.50
55135;DHT22;41031;44.750;11.308;2023-08-12T09:25:30;31.80;60.60
55135;DHT22;41031;44.750;11.308;2023-08-12T09:28:00;31.80;58.70
55135;DHT22;41031;44.750;11.308;2023-08-12T09:30:30;31.90;58.90
55135;DHT22;41031;44.750;11.308;2023-08-12T09:33:03;32.00;57.70
55135;DHT22;41031;44.750;11.308;2023-08-12T09:35:39;32.10;58.20
55135;DHT22;41031;44.750;11.308;2023-08-12T09:38:15;32.30;58.40
55135;DHT22;41031;44.750;11.308;2023-08-12T09:40:42;32.40;58.30
55135;DHT22;41031;44.750;11.308;2023-08-12T09:43:09;32.60;57.30
55135;DHT22;41031;44.750;11.308;2023-08-12T09:45:39;32.70;56.80
55135;DHT22;41031;44.750;11.308;2023-08-12T09:48:06;32.70;56.90
55135;DHT22;41031;44.750;11.308;2023-08-12T09:50:36;32.80;55.90
55135;DHT22;41031;44.750;11.308;2023-08-12T09:53:03;32.80;53.60
55135;DHT22;41031;44.750;11.308;2023-08-12T09:55:31;32.80;52.60
55135;DHT22;41031;44.750;11.308;2023-08-12T09:58:01;32.80;53.30
55135;DHT22;41031;44.750;11.308;2023-08-12T10:00:32;32.90;52.70
55135;DHT22;41031;44.750;11.308;2023-08-12T10:03:01;32.90;52.90
55135;DHT22;41031;44.750;11.308;2023-08-12T10:05:31;33.00;51.00
55135;DHT22;41031;44.750;11.308;2023-08-12T10:07:58;32.90;51.70
55135;DHT22;41031;44.750;11.308;2023-08-12T10:10:30;32.90;51.90
55135;DHT22;41031;44.750;11.308;2023-08-12T10:12:58;33.00;52.10
55135;DHT22;41031;44.750;11.308;2023-08-12T10:15:26;33.10;52.60
55135;DHT22;41031;44.750;11.308;2023-08-12T10:17:55;33.20;50.90
55135;DHT22;41031;44.750;11.308;2023-08-12T10:20:24;33.20;49.90
55135;DHT22;41031;44.750;11.308;2023-08-12T10:22:52;33.20;49.70
55135;DHT22;41031;44.750;11.308;2023-08-12T10:25:20;33.30;50.70
55135;DHT22;41031;44.750;11.308;2023-08-12T10:27:50;33.40;50.90
55135;DHT22;41031;44.750;11.308;2023-08-12T10:30:17;33.50;51.00
55135;DHT22;41031;44.750;11.308;2023-08-12T10:32:45;33.50;50.80
55135;DHT22;41031;44.750;11.308;2023-08-12T10:35:13;33.50;50.80
55135;DHT22;41031;44.750;11.308;2023-08-12T10:37:40;33.50;51.00
55135;DHT22;41031;44.750;11.308;2023-08-12T10:40:20;33.60;51.20
55135;DHT22;41031;44.750;11.308;2023-08-12T10:42:48;33.70;50.50
55135;DHT22;41031;44.750;11.308;2023-08-12T10:45:17;33.70;49.80
55135;DHT22;41031;44.750;11.308;2023-08-12T10:50:36;33.80;49.80
55135;DHT22;41031;44.750;11.308;2023-08-12T10:53:26;33.90;49.60
55135;DHT22;41031;44.750;11.308;2023-08-12T10:56:03;33.90;47.70
55135;DHT22;41031;44.750;11.308;2023-08-12T10:58:46;33.90;48.70
55135;DHT22;41031;44.750;11.308;2023-08-12T11:01:17;33.90;49.30
55135;DHT22;41031;44.750;11.308;2023-08-12T11:03:45;34.00;49.20
55135;DHT22;41031;44.750;11.308;2023-08-12T11:06:13;34.10;47.70
55135;DHT22;41031;44.750;11.308;2023-08-12T11:08:52;34.00;48.10
55135;DHT22;41031;44.750;11.308;2023-08-12T11:11:23;34.10;48.70
55135;DHT22;41031;44.750;11.308;2023-08-12T11:13:54;34.10;48.10
55135;DHT22;41031;44.750;11.308;2023-08-12T11:16:36;34.20;46.60
55135;DHT22;41031;44.750;11.308;2023-08-12T11:19:04;34.10;46.80
55135;DHT22;41031;44.750;11.308;2023-08-12T11:21:31;34.10;47.90
55135;DHT22;41031;44.750;11.308;2023-08-12T11:23:59;34.20;48.60
55135;DHT22;41031;44.750;11.308;2023-08-12T11:26:26;34.30;47.50
55135;DHT22;41031;44.750;11.308;2023-08-12T11:28:54;34.30;47.60
55135;DHT22;41031;44.750;11.308;2023-08-12T11:31:21;34.40;48.80
55135;DHT22;41031;44.750;11.308;2023-08-12T11:33:49;34.40;48.00
55135;DHT22;41031;44.750;11.308;2023-08-12T11:36:16;34.50;47.40
55135;DHT22;41031;44.750;11.308;2023-08-12T11:38:43;34.60;47.90
55135;DHT22;41031;44.750;11.308;2023-08-12T11:41:10;34.70;47.90
55135;DHT22;41031;44.750;11.308;2023-08-12T11:43:39;34.80;47.90
55135;DHT22;41031;44.750;11.308;2023-08-12T11:46:06;34.90;47.50
55135;DHT22;41031;44.750;11.308;2023-08-12T11:48:33;35.00;47.60
55135;DHT22;41031;44.750;11.308;2023-08-12T11:51:00;35.00;47.30
55135;DHT22;41031;44.750;11.308;2023-08-12T11:53:27;35.10;46.80
55135;DHT22;41031;44.750;11.308;2023-08-12T11:55:54;35.10;46.50
55135;DHT22;41031;44.750;11.308;2023-08-12T11:58:21;35.20;46.60
55135;DHT22;41031;44.750;11.308;2023-08-12T12:00:50;35.10;45.60
55135;DHT22;41031;44.750;11.308;2023-08-12T12:03:17;35.10;46.20
55135;DHT22;41031;44.750;11.308;2023-08-12T12:05:46;35.00;47.20
55135;DHT22;41031;44.750;11.308;2023-08-12T12:08:14;35.00;47.20
55135;DHT22;41031;44.750;11.308;2023-08-12T12:10:41;35.00;47.00
55135;DHT22;41031;44.750;11.308;2023-08-12T12:13:08;35.00;46.10
55135;DHT22;41031;44.750;11.308;2023-08-12T12:15:39;34.90;47.00
55135;DHT22;41031;44.750;11.308;2023-08-12T12:18:12;34.80;46.90
55135;DHT22;41031;44.750;11.308;2023-08-12T12:20:58;34.70;47.30
55135;DHT22;41031;44.750;11.308;2023-08-12T12:23:29;34.60;47.90
55135;DHT22;41031;44.750;11.308;2023-08-12T12:26:01;34.60;46.50
55135;DHT22;41031;44.750;11.308;2023-08-12T12:28:29;34.60;46.90
55135;DHT22;41031;44.750;11.308;2023-08-12T12:30:56;34.50;46.60
55135;DHT22;41031;44.750;11.308;2023-08-12T12:33:23;34.50;46.70
55135;DHT22;41031;44.750;11.308;2023-08-12T12:35:50;34.50;47.10
55135;DHT22;41031;44.750;11.308;2023-08-12T12:38:24;34.60;47.90
55135;DHT22;41031;44.750;11.308;2023-08-12T12:40:51;34.60;47.10
55135;DHT22;41031;44.750;11.308;2023-08-12T12:43:18;34.60;47.10
55135;DHT22;41031;44.750;11.308;2023-08-12T12:45:45;34.60;46.10
55135;DHT22;41031;44.750;11.308;2023-08-12T12:48:12;34.50;46.60
55135;DHT22;41031;44.750;11.308;2023-08-12T12:50:39;34.50;47.10
55135;DHT22;41031;44.750;11.308;2023-08-12T12:53:06;34.50;47.10
55135;DHT22;41031;44.750;11.308;2023-08-12T12:55:33;34.50;47.00
55135;DHT22;41031;44.750;11.308;2023-08-12T12:58:00;34.50;47.70
55135;DHT22;41031;44.750;11.308;2023-08-12T13:00:27;34.60;48.30
55135;DHT22;41031;44.750;11.308;2023-08-12T13:02:54;34.60;48.70
55135;DHT22;41031;44.750;11.308;2023-08-12T13:05:21;34.60;47.50
55135;DHT22;41031;44.750;11.308;2023-08-12T13:07:48;34.60;47.80
55135;DHT22;41031;44.750;11.308;2023-08-12T13:10:15;34.60;47.30
55135;DHT22;41031;44.750;11.308;2023-08-12T13:12:42;34.50;46.50
55135;DHT22;41031;44.750;11.308;2023-08-12T13:15:10;34.40;46.50
55135;DHT22;41031;44.750;11.308;2023-08-12T13:17:37;34.30;47.40
55135;DHT22;41031;44.750;11.308;2023-08-12T13:20:04;34.30;47.60
55135;DHT22;41031;44.750;11.308;2023-08-12T13:22:32;34.30;48.20
55135;DHT22;41031;44.750;11.308;2023-08-12T13:24:59;34.30;47.80
55135;DHT22;41031;44.750;11.308;2023-08-12T13:27:26;34.30;47.80
55135;DHT22;41031;44.750;11.308;2023-08-12T13:29:54;34.40;47.80
55135;DHT22;41031;44.750;11.308;2023-08-12T13:32:21;34.30;46.70
55135;DHT22;41031;44.750;11.308;2023-08-12T13:34:48;34.30;47.90
55135;DHT22;41031;44.750;11.308;2023-08-12T13:37:15;34.20;47.70
55135;DHT22;41031;44.750;11.308;2023-08-12T13:39:42;34.20;47.20
55135;DHT22;41031;44.750;11.308;2023-08-12T13:42:09;34.20;47.80
55135;DHT22;41031;44.750;11.308;2023-08-12T13:44:36;34.10;47.80
55135;DHT22;41031;44.750;11.308;2023-08-12T13:47:03;34.10;47.70
55135;DHT22;41031;44.750;11.308;2023-08-12T13:49:31;34.00;48.00
55135;DHT22;41031;44.750;11.308;2023-08-12T13:51:58;33.90;47.80
55135;DHT22;41031;44.750;11.308;2023-08-12T13:54:28;33.90;48.40
55135;DHT22;41031;44.750;11.308;2023-08-12T13:56:55;33.90;48.40
55135;DHT22;41031;44.750;11.308;2023-08-12T13:59:22;34.00;47.20
55135;DHT22;41031;44.750;11.308;2023-08-12T14:01:49;33.90;47.60
55135;DHT22;41031;44.750;11.308;2023-08-12T14:04:16;34.00;48.50
55135;DHT22;41031;44.750;11.308;2023-08-12T14:06:43;34.00;47.80
55135;DHT22;41031;44.750;11.308;2023-08-12T14:09:10;34.00;47.20
55135;DHT22;41031;44.750;11.308;2023-08-12T14:11:40;33.90;47.50
55135;DHT22;41031;44.750;11.308;2023-08-12T14:14:07;33.90;47.30
55135;DHT22;41031;44.750;11.308;2023-08-12T14:16:35;33.90;47.10
55135;DHT22;41031;44.750;11.308;2023-08-12T14:19:03;33.80;47.50
55135;DHT22;41031;44.750;11.308;2023-08-12T14:21:30;33.80;48.00
55135;DHT22;41031;44.750;11.308;2023-08-12T14:23:57;33.90;47.90
55135;DHT22;41031;44.750;11.308;2023-08-12T14:26:24;33.90;48.20
55135;DHT22;41031;44.750;11.308;2023-08-12T14:28:51;33.90;48.60
55135;DHT22;41031;44.750;11.308;2023-08-12T14:31:18;33.90;48.10
55135;DHT22;41031;44.750;11.308;2023-08-12T14:33:45;34.00;48.10
55135;DHT22;41031;44.750;11.308;2023-08-12T14:36:12;34.10;47.60
55135;DHT22;41031;44.750;11.308;2023-08-12T14:38:39;34.10;48.20
55135;DHT22;41031;44.750;11.308;2023-08-12T14:41:06;34.10;48.80
55135;DHT22;41031;44.750;11.308;2023-08-12T14:43:33;34.10;48.50
55135;DHT22;41031;44.750;11.308;2023-08-12T14:46:00;34.20;48.90
55135;DHT22;41031;44.750;11.308;2023-08-12T14:48:28;34.20;48.20
55135;DHT22;41031;44.750;11.308;2023-08-12T14:50:55;34.10;48.30
55135;DHT22;41031;44.750;11.308;2023-08-12T14:53:22;34.10;48.50
55135;DHT22;41031;44.750;11.308;2023-08-12T14:55:49;34.10;49.10
55135;DHT22;41031;44.750;11.308;2023-08-12T14:58:16;34.10;47.70
55135;DHT22;41031;44.750;11.308;2023-08-12T15:00:43;34.00;47.50
55135;DHT22;41031;44.750;11.308;2023-08-12T15:03:11;33.90;48.20
55135;DHT22;41031;44.750;11.308;2023-08-12T15:05:39;33.90;48.10
55135;DHT22;41031;44.750;11.308;2023-08-12T15:08:06;33.80;48.80
55135;DHT22;41031;44.750;11.308;2023-08-12T15:10:33;33.80;48.90
55135;DHT22;41031;44.750;11.308;2023-08-12T15:13:00;33.70;48.80
55135;DHT22;41031;44.750;11.308;2023-08-12T15:15:27;33.70;48.60
55135;DHT22;41031;44.750;11.308;2023-08-12T15:17:54;33.70;48.70
55135;DHT22;41031;44.750;11.308;2023-08-12T15:20:21;33.70;48.30
55135;DHT22;41031;44.750;11.308;2023-08-12T15:22:49;33.70;48.00